sensor_id;sensor_type;location;lat;lon;timestamp;P1;durP1;ratioP1;P2;durP2;ratioP2
61505;SDS011;47366;51.916;4.574;2022-11-11T00:01:40;12.32;;;4.57;;
61505;SDS011;47366;51.916;4.574;2022-11-11T00:04:05;9.60;;;3.90;;
61505;SDS011;47366;51.916;4.574;2022-11-11T00:06:31;7.95;;;4.20;;
61505;SDS011;47366;51.916;4.574;2022-11-11T00:08:56;5.93;;;3.45;;
61505;SDS011;47366;51.916;4.574;2022-11-11T00:11:21;7.32;;;4.22;;
61505;SDS011;47366;51.916;4.574;2022-11-11T00:13:47;9.75;;;4.65;;
61505;SDS011;47366;51.916;4.574;2022-11-11T00:16:16;9.55;;;3.83;;
61505;SDS011;47366;51.916;4.574;2022-11-11T00:18:43;10.25;;;4.78;;
61505;SDS011;47366;51.916;4.574;2022-11-11T00:21:28;10.32;;;3.92;;
61505;SDS011;47366;51.916;4.574;2022-11-11T00:27:12;9.02;;;4.45;;
61505;SDS011;47366;51.916;4.574;2022-11-11T00:29:38;11.40;;;4.82;;
61505;SDS011;47366;51.916;4.574;2022-11-11T00:32:07;7.65;;;4.05;;
61505;SDS011;47366;51.916;4.574;2022-11-11T00:34:52;15.60;;;4.47;;
61505;SDS011;47366;51.916;4.574;2022-11-11T00:37:37;10.13;;;4.70;;
61505;SDS011;47366;51.916;4.574;2022-11-11T00:40:03;9.75;;;4.75;;
61505;SDS011;47366;51.916;4.574;2022-11-11T00:42:29;10.20;;;4.90;;
61505;SDS011;47366;51.916;4.574;2022-11-11T00:44:54;11.80;;;5.20;;
61505;SDS011;47366;51.916;4.574;2022-11-11T00:47:20;10.95;;;4.78;;
61505;SDS011;47366;51.916;4.574;2022-11-11T00:50:05;8.77;;;4.43;;
61505;SDS011;47366;51.916;4.574;2022-11-11T00:52:53;7.85;;;4.05;;
61505;SDS011;47366;51.916;4.574;2022-11-11T00:55:18;9.05;;;4.35;;
61505;SDS011;47366;51.916;4.574;2022-11-11T00:57:43;11.80;;;5.20;;
61505;SDS011;47366;51.916;4.574;2022-11-11T01:00:09;12.38;;;4.88;;
61505;SDS011;47366;51.916;4.574;2022-11-11T01:02:34;8.63;;;4.45;;
61505;SDS011;47366;51.916;4.574;2022-11-11T01:05:00;10.02;;;5.47;;
61505;SDS011;47366;51.916;4.574;2022-11-11T01:07:25;9.32;;;4.30;;
61505;SDS011;47366;51.916;4.574;2022-11-11T01:09:50;10.98;;;4.93;;
61505;SDS011;47366;51.916;4.574;2022-11-11T01:12:16;8.82;;;4.15;;
61505;SDS011;47366;51.916;4.574;2022-11-11T01:14:41;9.82;;;4.32;;
61505;SDS011;47366;51.916;4.574;2022-11-11T01:17:06;11.18;;;5.20;;
61505;SDS011;47366;51.916;4.574;2022-11-11T01:19:33;10.18;;;5.22;;
61505;SDS011;47366;51.916;4.574;2022-11-11T01:21:59;12.90;;;4.82;;
61505;SDS011;47366;51.916;4.574;2022-11-11T01:24:24;11.50;;;5.28;;
61505;SDS011;47366;51.916;4.574;2022-11-11T01:26:49;10.63;;;5.88;;
61505;SDS011;47366;51.916;4.574;2022-11-11T01:29:15;9.57;;;4.68;;
61505;SDS011;47366;51.916;4.574;2022-11-11T01:31:40;12.75;;;5.85;;
61505;SDS011;47366;51.916;4.574;2022-11-11T01:34:06;11.82;;;5.15;;
61505;SDS011;47366;51.916;4.574;2022-11-11T01:36:31;7.35;;;3.95;;
61505;SDS011;47366;51.916;4.574;2022-11-11T01:38:57;12.95;;;5.18;;
61505;SDS011;47366;51.916;4.574;2022-11-11T01:41:27;13.13;;;5.32;;
61505;SDS011;47366;51.916;4.574;2022-11-11T01:43:57;12.35;;;5.90;;
61505;SDS011;47366;51.916;4.574;2022-11-11T01:46:30;8.18;;;3.85;;
61505;SDS011;47366;51.916;4.574;2022-11-11T02:00:08;10.32;;;4.63;;
61505;SDS011;47366;51.916;4.574;2022-11-11T02:02:49;11.15;;;5.00;;
61505;SDS011;47366;51.916;4.574;2022-11-11T02:05:19;11.82;;;4.80;;
61505;SDS011;47366;51.916;4.574;2022-11-11T02:08:06;9.45;;;5.15;;
61505;SDS011;47366;51.916;4.574;2022-11-11T02:10:38;8.68;;;4.63;;
61505;SDS011;47366;51.916;4.574;2022-11-11T02:13:11;11.60;;;4.70;;
61505;SDS011;47366;51.916;4.574;2022-11-11T02:15:56;13.18;;;5.03;;
61505;SDS011;47366;51.916;4.574;2022-11-11T02:18:22;8.43;;;4.43;;
61505;SDS011;47366;51.916;4.574;2022-11-11T02:20:48;9.77;;;4.65;;
61505;SDS011;47366;51.916;4.574;2022-11-11T02:23:14;14.05;;;4.68;;
61505;SDS011;47366;51.916;4.574;2022-11-11T02:26:00;12.90;;;4.97;;
61505;SDS011;47366;51.916;4.574;2022-11-11T02:28:27;13.65;;;5.93;;
61505;SDS011;47366;51.916;4.574;2022-11-11T02:30:55;16.02;;;5.95;;
61505;SDS011;47366;51.916;4.574;2022-11-11T02:33:21;14.23;;;5.97;;
61505;SDS011;47366;51.916;4.574;2022-11-11T02:35:50;12.88;;;6.53;;
61505;SDS011;47366;51.916;4.574;2022-11-11T02:38:22;13.00;;;5.25;;
61505;SDS011;47366;51.916;4.574;2022-11-11T02:40:49;11.38;;;5.40;;
61505;SDS011;47366;51.916;4.574;2022-11-11T02:43:33;13.20;;;5.68;;
61505;SDS011;47366;51.916;4.574;2022-11-11T02:45:59;12.52;;;5.43;;
61505;SDS011;47366;51.916;4.574;2022-11-11T02:48:26;13.60;;;6.25;;
61505;SDS011;47366;51.916;4.574;2022-11-11T02:50:52;8.75;;;4.88;;
61505;SDS011;47366;51.916;4.574;2022-11-11T02:53:18;12.38;;;5.75;;
61505;SDS011;47366;51.916;4.574;2022-11-11T02:55:44;14.05;;;5.60;;
61505;SDS011;47366;51.916;4.574;2022-11-11T02:58:09;12.57;;;5.53;;
61505;SDS011;47366;51.916;4.574;2022-11-11T03:00:35;13.43;;;5.45;;
61505;SDS011;47366;51.916;4.574;2022-11-11T03:03:00;12.35;;;4.97;;
61505;SDS011;47366;51.916;4.574;2022-11-11T03:05:25;9.50;;;5.57;;
61505;SDS011;47366;51.916;4.574;2022-11-11T03:07:51;13.73;;;5.60;;
61505;SDS011;47366;51.916;4.574;2022-11-11T03:10:16;8.70;;;4.57;;
61505;SDS011;47366;51.916;4.574;2022-11-11T03:12:41;11.15;;;5.75;;
61505;SDS011;47366;51.916;4.574;2022-11-11T03:15:07;9.05;;;4.57;;
61505;SDS011;47366;51.916;4.574;2022-11-11T03:17:32;10.80;;;5.30;;
61505;SDS011;47366;51.916;4.574;2022-11-11T03:20:14;9.30;;;4.88;;
61505;SDS011;47366;51.916;4.574;2022-11-11T03:25:39;15.35;;;5.47;;
61505;SDS011;47366;51.916;4.574;2022-11-11T03:28:16;10.68;;;5.32;;
61505;SDS011;47366;51.916;4.574;2022-11-11T03:30:44;11.35;;;5.43;;
61505;SDS011;47366;51.916;4.574;2022-11-11T03:33:11;9.65;;;5.03;;
61505;SDS011;47366;51.916;4.574;2022-11-11T03:35:37;9.43;;;5.15;;
61505;SDS011;47366;51.916;4.574;2022-11-11T03:38:03;17.48;;;5.60;;
61505;SDS011;47366;51.916;4.574;2022-11-11T03:40:52;10.15;;;4.88;;
61505;SDS011;47366;51.916;4.574;2022-11-11T03:43:21;10.80;;;4.43;;
61505;SDS011;47366;51.916;4.574;2022-11-11T03:45:48;11.13;;;4.72;;
61505;SDS011;47366;51.916;4.574;2022-11-11T03:48:14;8.55;;;4.85;;
61505;SDS011;47366;51.916;4.574;2022-11-11T03:50:40;11.07;;;4.72;;
61505;SDS011;47366;51.916;4.574;2022-11-11T03:53:06;8.18;;;4.07;;
61505;SDS011;47366;51.916;4.574;2022-11-11T03:55:32;13.95;;;6.00;;
61505;SDS011;47366;51.916;4.574;2022-11-11T03:57:57;8.23;;;4.13;;
61505;SDS011;47366;51.916;4.574;2022-11-11T04:00:24;9.45;;;4.95;;
61505;SDS011;47366;51.916;4.574;2022-11-11T04:02:51;8.63;;;4.63;;
61505;SDS011;47366;51.916;4.574;2022-11-11T04:08:27;5.15;;;2.38;;
61505;SDS011;47366;51.916;4.574;2022-11-11T04:11:11;8.77;;;4.38;;
61505;SDS011;47366;51.916;4.574;2022-11-11T04:13:39;9.63;;;4.15;;
61505;SDS011;47366;51.916;4.574;2022-11-11T04:16:25;8.93;;;4.55;;
61505;SDS011;47366;51.916;4.574;2022-11-11T04:18:50;9.70;;;4.22;;
61505;SDS011;47366;51.916;4.574;2022-11-11T04:21:34;14.38;;;5.15;;
61505;SDS011;47366;51.916;4.574;2022-11-11T04:24:10;12.18;;;4.82;;
61505;SDS011;47366;51.916;4.574;2022-11-11T04:26:59;9.38;;;4.55;;
61505;SDS011;47366;51.916;4.574;2022-11-11T04:29:26;12.57;;;4.65;;
61505;SDS011;47366;51.916;4.574;2022-11-11T04:34:49;14.55;;;4.28;;
61505;SDS011;47366;51.916;4.574;2022-11-11T04:39:43;6.63;;;2.95;;
61505;SDS011;47366;51.916;4.574;2022-11-11T04:42:28;8.13;;;4.55;;
61505;SDS011;47366;51.916;4.574;2022-11-11T04:44:54;5.28;;;3.38;;
61505;SDS011;47366;51.916;4.574;2022-11-11T04:47:51;8.75;;;3.90;;
61505;SDS011;47366;51.916;4.574;2022-11-11T04:50:17;10.48;;;4.50;;
61505;SDS011;47366;51.916;4.574;2022-11-11T04:52:42;9.50;;;4.82;;
61505;SDS011;47366;51.916;4.574;2022-11-11T04:55:08;12.13;;;4.43;;
61505;SDS011;47366;51.916;4.574;2022-11-11T04:57:52;7.30;;;3.72;;
61505;SDS011;47366;51.916;4.574;2022-11-11T05:00:17;9.63;;;4.15;;
61505;SDS011;47366;51.916;4.574;2022-11-11T05:02:43;7.93;;;3.17;;
61505;SDS011;47366;51.916;4.574;2022-11-11T05:05:27;7.70;;;4.20;;
61505;SDS011;47366;51.916;4.574;2022-11-11T05:08:14;7.13;;;3.05;;
61505;SDS011;47366;51.916;4.574;2022-11-11T05:10:58;11.13;;;3.63;;
61505;SDS011;47366;51.916;4.574;2022-11-11T05:13:23;8.93;;;4.15;;
61505;SDS011;47366;51.916;4.574;2022-11-11T05:16:09;8.68;;;3.67;;
61505;SDS011;47366;51.916;4.574;2022-11-11T05:18:59;10.97;;;5.20;;
61505;SDS011;47366;51.916;4.574;2022-11-11T05:21:42;13.50;;;4.28;;
61505;SDS011;47366;51.916;4.574;2022-11-11T05:24:08;12.90;;;4.20;;
61505;SDS011;47366;51.916;4.574;2022-11-11T05:26:52;8.35;;;3.75;;
61505;SDS011;47366;51.916;4.574;2022-11-11T05:29:17;8.38;;;3.95;;
61505;SDS011;47366;51.916;4.574;2022-11-11T05:31:42;10.05;;;4.40;;
61505;SDS011;47366;51.916;4.574;2022-11-11T05:34:08;7.80;;;4.18;;
61505;SDS011;47366;51.916;4.574;2022-11-11T05:36:33;7.15;;;3.25;;
61505;SDS011;47366;51.916;4.574;2022-11-11T05:38:58;7.18;;;3.65;;
61505;SDS011;47366;51.916;4.574;2022-11-11T05:41:24;9.27;;;4.05;;
61505;SDS011;47366;51.916;4.574;2022-11-11T05:43:49;9.73;;;3.95;;
61505;SDS011;47366;51.916;4.574;2022-11-11T05:46:14;7.43;;;4.43;;
61505;SDS011;47366;51.916;4.574;2022-11-11T05:48:40;8.80;;;4.07;;
61505;SDS011;47366;51.916;4.574;2022-11-11T05:51:25;8.98;;;3.40;;
61505;SDS011;47366;51.916;4.574;2022-11-11T05:53:54;6.50;;;3.72;;
61505;SDS011;47366;51.916;4.574;2022-11-11T05:56:20;6.05;;;3.03;;
61505;SDS011;47366;51.916;4.574;2022-11-11T05:58:45;6.80;;;3.45;;
61505;SDS011;47366;51.916;4.574;2022-11-11T06:01:11;6.40;;;4.20;;
61505;SDS011;47366;51.916;4.574;2022-11-11T06:03:36;6.05;;;3.35;;
61505;SDS011;47366;51.916;4.574;2022-11-11T06:06:01;10.10;;;4.57;;
61505;SDS011;47366;51.916;4.574;2022-11-11T06:08:26;7.90;;;3.78;;
61505;SDS011;47366;51.916;4.574;2022-11-11T06:10:52;7.63;;;4.32;;
61505;SDS011;47366;51.916;4.574;2022-11-11T06:13:17;12.25;;;4.15;;
61505;SDS011;47366;51.916;4.574;2022-11-11T06:15:43;7.88;;;4.65;;
61505;SDS011;47366;51.916;4.574;2022-11-11T06:18:08;8.57;;;3.83;;
61505;SDS011;47366;51.916;4.574;2022-11-11T06:20:33;7.60;;;4.47;;
61505;SDS011;47366;51.916;4.574;2022-11-11T06:23:00;12.35;;;5.18;;
61505;SDS011;47366;51.916;4.574;2022-11-11T06:25:27;10.82;;;4.28;;
61505;SDS011;47366;51.916;4.574;2022-11-11T06:28:12;7.45;;;3.40;;
61505;SDS011;47366;51.916;4.574;2022-11-11T06:30:38;6.63;;;3.60;;
61505;SDS011;47366;51.916;4.574;2022-11-11T06:33:04;10.27;;;3.55;;
61505;SDS011;47366;51.916;4.574;2022-11-11T06:35:37;7.10;;;4.18;;
61505;SDS011;47366;51.916;4.574;2022-11-11T06:38:05;6.38;;;3.30;;
61505;SDS011;47366;51.916;4.574;2022-11-11T06:40:31;7.93;;;4.45;;
61505;SDS011;47366;51.916;4.574;2022-11-11T06:42:57;13.05;;;5.75;;
61505;SDS011;47366;51.916;4.574;2022-11-11T06:45:24;9.73;;;4.47;;
61505;SDS011;47366;51.916;4.574;2022-11-11T06:47:51;7.55;;;3.97;;
61505;SDS011;47366;51.916;4.574;2022-11-11T06:50:17;9.55;;;3.88;;
61505;SDS011;47366;51.916;4.574;2022-11-11T06:52:43;10.13;;;4.18;;
61505;SDS011;47366;51.916;4.574;2022-11-11T06:55:08;8.80;;;4.30;;
61505;SDS011;47366;51.916;4.574;2022-11-11T06:57:34;12.30;;;5.18;;
61505;SDS011;47366;51.916;4.574;2022-11-11T07:00:00;7.38;;;3.97;;
61505;SDS011;47366;51.916;4.574;2022-11-11T07:02:25;8.32;;;3.78;;
61505;SDS011;47366;51.916;4.574;2022-11-11T07:04:51;8.73;;;4.55;;
61505;SDS011;47366;51.916;4.574;2022-11-11T07:07:16;9.38;;;3.75;;
61505;SDS011;47366;51.916;4.574;2022-11-11T07:09:42;7.85;;;4.00;;
61505;SDS011;47366;51.916;4.574;2022-11-11T07:12:07;7.65;;;3.85;;
61505;SDS011;47366;51.916;4.574;2022-11-11T07:14:33;7.82;;;4.57;;
61505;SDS011;47366;51.916;4.574;2022-11-11T07:16:58;6.78;;;3.60;;
61505;SDS011;47366;51.916;4.574;2022-11-11T07:19:24;4.00;;;2.55;;
61505;SDS011;47366;51.916;4.574;2022-11-11T07:21:49;6.80;;;3.83;;
61505;SDS011;47366;51.916;4.574;2022-11-11T07:24:14;11.57;;;5.25;;
61505;SDS011;47366;51.916;4.574;2022-11-11T07:26:40;8.40;;;4.00;;
61505;SDS011;47366;51.916;4.574;2022-11-11T07:29:06;9.35;;;4.85;;
61505;SDS011;47366;51.916;4.574;2022-11-11T07:31:31;9.82;;;3.78;;
61505;SDS011;47366;51.916;4.574;2022-11-11T07:33:57;11.63;;;3.75;;
61505;SDS011;47366;51.916;4.574;2022-11-11T07:36:22;6.47;;;3.85;;
61505;SDS011;47366;51.916;4.574;2022-11-11T07:38:47;9.80;;;3.60;;
61505;SDS011;47366;51.916;4.574;2022-11-11T07:41:13;10.57;;;4.43;;
61505;SDS011;47366;51.916;4.574;2022-11-11T07:43:38;9.75;;;4.65;;
61505;SDS011;47366;51.916;4.574;2022-11-11T07:46:03;7.78;;;3.55;;
61505;SDS011;47366;51.916;4.574;2022-11-11T07:48:29;9.80;;;5.03;;
61505;SDS011;47366;51.916;4.574;2022-11-11T07:50:54;10.25;;;4.07;;
61505;SDS011;47366;51.916;4.574;2022-11-11T07:53:19;7.53;;;4.25;;
61505;SDS011;47366;51.916;4.574;2022-11-11T07:55:45;9.10;;;4.28;;
61505;SDS011;47366;51.916;4.574;2022-11-11T07:58:10;7.78;;;4.40;;
61505;SDS011;47366;51.916;4.574;2022-11-11T08:00:36;8.40;;;4.57;;
61505;SDS011;47366;51.916;4.574;2022-11-11T08:03:01;11.98;;;4.60;;
61505;SDS011;47366;51.916;4.574;2022-11-11T08:05:27;14.98;;;5.85;;
61505;SDS011;47366;51.916;4.574;2022-11-11T08:07:52;10.40;;;4.43;;
61505;SDS011;47366;51.916;4.574;2022-11-11T08:10:17;8.85;;;4.65;;
61505;SDS011;47366;51.916;4.574;2022-11-11T08:12:44;6.97;;;3.63;;
61505;SDS011;47366;51.916;4.574;2022-11-11T08:15:27;6.90;;;3.80;;
61505;SDS011;47366;51.916;4.574;2022-11-11T08:17:53;8.48;;;4.82;;
61505;SDS011;47366;51.916;4.574;2022-11-11T08:20:18;16.13;;;4.15;;
61505;SDS011;47366;51.916;4.574;2022-11-11T08:22:43;8.55;;;4.38;;
61505;SDS011;47366;51.916;4.574;2022-11-11T08:25:11;6.47;;;3.35;;
61505;SDS011;47366;51.916;4.574;2022-11-11T08:27:40;8.27;;;4.10;;
61505;SDS011;47366;51.916;4.574;2022-11-11T08:30:06;7.43;;;3.70;;
61505;SDS011;47366;51.916;4.574;2022-11-11T08:32:32;7.25;;;3.90;;
61505;SDS011;47366;51.916;4.574;2022-11-11T08:34:58;7.53;;;4.18;;
61505;SDS011;47366;51.916;4.574;2022-11-11T08:37:23;8.25;;;3.78;;
61505;SDS011;47366;51.916;4.574;2022-11-11T08:39:49;6.53;;;3.60;;
61505;SDS011;47366;51.916;4.574;2022-11-11T08:42:16;9.35;;;4.43;;
61505;SDS011;47366;51.916;4.574;2022-11-11T08:44:42;8.32;;;3.55;;
61505;SDS011;47366;51.916;4.574;2022-11-11T08:47:07;14.45;;;5.05;;
61505;SDS011;47366;51.916;4.574;2022-11-11T08:49:33;9.93;;;4.32;;
61505;SDS011;47366;51.916;4.574;2022-11-11T08:51:58;8.30;;;3.38;;
61505;SDS011;47366;51.916;4.574;2022-11-11T08:54:23;10.00;;;4.22;;
61505;SDS011;47366;51.916;4.574;2022-11-11T08:56:49;8.02;;;3.88;;
61505;SDS011;47366;51.916;4.574;2022-11-11T08:59:14;8.45;;;3.45;;
61505;SDS011;47366;51.916;4.574;2022-11-11T09:01:39;6.82;;;3.63;;
61505;SDS011;47366;51.916;4.574;2022-11-11T09:04:05;10.07;;;3.75;;
61505;SDS011;47366;51.916;4.574;2022-11-11T09:06:30;6.15;;;3.38;;
61505;SDS011;47366;51.916;4.574;2022-11-11T09:08:56;6.90;;;4.00;;
61505;SDS011;47366;51.916;4.574;2022-11-11T09:11:21;8.65;;;3.83;;
61505;SDS011;47366;51.916;4.574;2022-11-11T09:13:47;6.50;;;3.28;;
61505;SDS011;47366;51.916;4.574;2022-11-11T09:16:12;6.65;;;3.80;;
61505;SDS011;47366;51.916;4.574;2022-11-11T09:18:38;10.45;;;4.60;;
61505;SDS011;47366;51.916;4.574;2022-11-11T09:21:04;8.02;;;3.35;;
61505;SDS011;47366;51.916;4.574;2022-11-11T09:23:29;6.47;;;3.88;;
61505;SDS011;47366;51.916;4.574;2022-11-11T09:25:55;8.85;;;4.35;;
61505;SDS011;47366;51.916;4.574;2022-11-11T09:28:22;7.05;;;3.55;;
61505;SDS011;47366;51.916;4.574;2022-11-11T09:30:48;6.93;;;3.17;;
61505;SDS011;47366;51.916;4.574;2022-11-11T09:33:13;9.18;;;3.97;;
61505;SDS011;47366;51.916;4.574;2022-11-11T09:35:40;8.82;;;3.88;;
61505;SDS011;47366;51.916;4.574;2022-11-11T09:38:06;7.97;;;3.85;;
61505;SDS011;47366;51.916;4.574;2022-11-11T09:40:38;9.45;;;4.15;;
61505;SDS011;47366;51.916;4.574;2022-11-11T09:43:10;9.45;;;3.53;;
61505;SDS011;47366;51.916;4.574;2022-11-11T09:48:43;6.53;;;3.72;;
61505;SDS011;47366;51.916;4.574;2022-11-11T09:51:40;8.48;;;3.50;;
61505;SDS011;47366;51.916;4.574;2022-11-11T09:54:14;6.60;;;4.03;;
61505;SDS011;47366;51.916;4.574;2022-11-11T09:56:42;6.82;;;3.28;;
61505;SDS011;47366;51.916;4.574;2022-11-11T10:01:41;8.40;;;4.05;;
61505;SDS011;47366;51.916;4.574;2022-11-11T10:04:24;11.75;;;4.10;;
61505;SDS011;47366;51.916;4.574;2022-11-11T10:06:59;8.27;;;4.07;;
61505;SDS011;47366;51.916;4.574;2022-11-11T10:12:10;7.63;;;3.25;;
61505;SDS011;47366;51.916;4.574;2022-11-11T10:14:40;11.10;;;4.50;;
61505;SDS011;47366;51.916;4.574;2022-11-11T10:19:51;8.32;;;3.75;;
61505;SDS011;47366;51.916;4.574;2022-11-11T10:22:22;8.05;;;3.50;;
61505;SDS011;47366;51.916;4.574;2022-11-11T10:24:53;6.05;;;3.58;;
61505;SDS011;47366;51.916;4.574;2022-11-11T10:27:31;5.60;;;3.15;;
61505;SDS011;47366;51.916;4.574;2022-11-11T10:29:57;5.53;;;3.33;;
61505;SDS011;47366;51.916;4.574;2022-11-11T10:32:26;6.72;;;3.53;;
61505;SDS011;47366;51.916;4.574;2022-11-11T10:34:56;6.80;;;3.30;;
61505;SDS011;47366;51.916;4.574;2022-11-11T10:37:40;8.15;;;4.13;;
61505;SDS011;47366;51.916;4.574;2022-11-11T10:40:17;6.45;;;3.97;;
61505;SDS011;47366;51.916;4.574;2022-11-11T10:42:46;8.63;;;4.10;;
61505;SDS011;47366;51.916;4.574;2022-11-11T10:48:11;6.00;;;2.97;;
61505;SDS011;47366;51.916;4.574;2022-11-11T10:51:15;9.90;;;3.22;;
61505;SDS011;47366;51.916;4.574;2022-11-11T10:56:23;5.25;;;3.25;;
61505;SDS011;47366;51.916;4.574;2022-11-11T10:59:00;5.05;;;2.58;;
61505;SDS011;47366;51.916;4.574;2022-11-11T11:04:08;6.03;;;3.30;;
61505;SDS011;47366;51.916;4.574;2022-11-11T11:06:39;6.28;;;2.92;;
61505;SDS011;47366;51.916;4.574;2022-11-11T11:09:14;9.05;;;3.70;;
61505;SDS011;47366;51.916;4.574;2022-11-11T11:14:14;7.30;;;3.30;;
61505;SDS011;47366;51.916;4.574;2022-11-11T11:16:51;5.63;;;2.78;;
61505;SDS011;47366;51.916;4.574;2022-11-11T11:21:59;8.27;;;3.88;;
61505;SDS011;47366;51.916;4.574;2022-11-11T11:24:27;5.85;;;2.72;;
61505;SDS011;47366;51.916;4.574;2022-11-11T11:26:56;5.70;;;3.08;;
61505;SDS011;47366;51.916;4.574;2022-11-11T11:29:24;6.03;;;2.92;;
61505;SDS011;47366;51.916;4.574;2022-11-11T11:31:52;11.63;;;3.25;;
61505;SDS011;47366;51.916;4.574;2022-11-11T11:34:17;6.47;;;2.67;;
61505;SDS011;47366;51.916;4.574;2022-11-11T11:36:43;6.03;;;2.95;;
61505;SDS011;47366;51.916;4.574;2022-11-11T11:39:08;5.57;;;3.00;;
61505;SDS011;47366;51.916;4.574;2022-11-11T11:41:37;6.38;;;3.10;;
61505;SDS011;47366;51.916;4.574;2022-11-11T11:44:23;5.03;;;2.55;;
61505;SDS011;47366;51.916;4.574;2022-11-11T11:47:01;5.22;;;2.47;;
61505;SDS011;47366;51.916;4.574;2022-11-11T11:55:41;5.43;;;2.90;;
61505;SDS011;47366;51.916;4.574;2022-11-11T12:10:17;4.30;;;1.92;;
61505;SDS011;47366;51.916;4.574;2022-11-11T12:18:52;11.00;;;3.15;;
61505;SDS011;47366;51.916;4.574;2022-11-11T12:21:28;4.57;;;2.60;;
61505;SDS011;47366;51.916;4.574;2022-11-11T12:26:48;4.53;;;2.75;;
61505;SDS011;47366;51.916;4.574;2022-11-11T12:29:37;4.22;;;2.40;;
61505;SDS011;47366;51.916;4.574;2022-11-11T12:37:53;4.47;;;2.50;;
61505;SDS011;47366;51.916;4.574;2022-11-11T12:40:32;5.75;;;3.30;;
61505;SDS011;47366;51.916;4.574;2022-11-11T12:43:19;5.10;;;2.38;;
61505;SDS011;47366;51.916;4.574;2022-11-11T12:57:03;5.07;;;2.03;;
61505;SDS011;47366;51.916;4.574;2022-11-11T13:05:19;5.32;;;2.05;;
61505;SDS011;47366;51.916;4.574;2022-11-11T13:16:30;3.88;;;1.83;;
61505;SDS011;47366;51.916;4.574;2022-11-11T13:21:45;3.38;;;1.98;;
61505;SDS011;47366;51.916;4.574;2022-11-11T13:24:17;3.95;;;2.47;;
61505;SDS011;47366;51.916;4.574;2022-11-11T13:32:12;3.72;;;2.33;;
61505;SDS011;47366;51.916;4.574;2022-11-11T13:34:40;5.80;;;2.25;;
61505;SDS011;47366;51.916;4.574;2022-11-11T13:37:07;3.25;;;1.70;;
61505;SDS011;47366;51.916;4.574;2022-11-11T13:39:46;4.88;;;2.42;;
61505;SDS011;47366;51.916;4.574;2022-11-11T13:42:19;4.65;;;1.98;;
61505;SDS011;47366;51.916;4.574;2022-11-11T13:44:48;5.03;;;2.47;;
61505;SDS011;47366;51.916;4.574;2022-11-11T13:47:28;5.50;;;2.75;;
61505;SDS011;47366;51.916;4.574;2022-11-11T13:50:00;4.75;;;2.25;;
61505;SDS011;47366;51.916;4.574;2022-11-11T13:52:33;4.43;;;2.63;;
61505;SDS011;47366;51.916;4.574;2022-11-11T13:55:02;3.65;;;2.00;;
61505;SDS011;47366;51.916;4.574;2022-11-11T13:57:32;5.67;;;2.37;;
61505;SDS011;47366;51.916;4.574;2022-11-11T14:02:40;4.90;;;2.33;;
61505;SDS011;47366;51.916;4.574;2022-11-11T14:10:54;7.20;;;3.15;;
61505;SDS011;47366;51.916;4.574;2022-11-11T14:15:50;4.95;;;2.30;;
61505;SDS011;47366;51.916;4.574;2022-11-11T14:23:20;4.30;;;2.42;;
61505;SDS011;47366;51.916;4.574;2022-11-11T14:28:30;4.63;;;2.65;;
61505;SDS011;47366;51.916;4.574;2022-11-11T14:33:41;7.68;;;2.85;;
61505;SDS011;47366;51.916;4.574;2022-11-11T14:38:44;7.22;;;2.83;;
61505;SDS011;47366;51.916;4.574;2022-11-11T14:57:28;5.63;;;3.00;;
61505;SDS011;47366;51.916;4.574;2022-11-11T14:59:56;7.93;;;2.50;;
61505;SDS011;47366;51.916;4.574;2022-11-11T15:02:28;5.75;;;2.60;;
61505;SDS011;47366;51.916;4.574;2022-11-11T15:04:57;5.47;;;2.80;;
61505;SDS011;47366;51.916;4.574;2022-11-11T15:07:28;4.45;;;2.35;;
61505;SDS011;47366;51.916;4.574;2022-11-11T15:10:32;8.50;;;2.55;;
61505;SDS011;47366;51.916;4.574;2022-11-11T15:13:16;5.05;;;2.28;;
61505;SDS011;47366;51.916;4.574;2022-11-11T15:21:27;3.88;;;2.40;;
61505;SDS011;47366;51.916;4.574;2022-11-11T15:38:13;6.68;;;2.80;;
61505;SDS011;47366;51.916;4.574;2022-11-11T15:40:44;6.40;;;2.90;;
61505;SDS011;47366;51.916;4.574;2022-11-11T15:43:20;6.72;;;2.70;;
61505;SDS011;47366;51.916;4.574;2022-11-11T15:45:51;6.88;;;2.88;;
61505;SDS011;47366;51.916;4.574;2022-11-11T15:48:20;5.65;;;2.75;;
61505;SDS011;47366;51.916;4.574;2022-11-11T15:50:54;4.80;;;2.92;;
61505;SDS011;47366;51.916;4.574;2022-11-11T15:53:24;8.30;;;3.08;;
61505;SDS011;47366;51.916;4.574;2022-11-11T15:55:56;7.82;;;3.05;;
61505;SDS011;47366;51.916;4.574;2022-11-11T15:58:29;9.32;;;2.40;;
61505;SDS011;47366;51.916;4.574;2022-11-11T16:00:56;10.15;;;2.72;;
61505;SDS011;47366;51.916;4.574;2022-11-11T16:06:19;7.22;;;3.03;;
61505;SDS011;47366;51.916;4.574;2022-11-11T16:08:46;5.60;;;2.90;;
61505;SDS011;47366;51.916;4.574;2022-11-11T16:11:14;5.97;;;2.88;;
61505;SDS011;47366;51.916;4.574;2022-11-11T16:13:49;6.22;;;2.78;;
61505;SDS011;47366;51.916;4.574;2022-11-11T16:16:21;5.28;;;2.70;;
61505;SDS011;47366;51.916;4.574;2022-11-11T16:18:52;5.85;;;2.50;;
61505;SDS011;47366;51.916;4.574;2022-11-11T16:23:53;6.55;;;2.75;;
61505;SDS011;47366;51.916;4.574;2022-11-11T16:26:21;5.25;;;2.88;;
61505;SDS011;47366;51.916;4.574;2022-11-11T16:28:51;5.95;;;2.40;;
61505;SDS011;47366;51.916;4.574;2022-11-11T16:31:18;6.97;;;2.60;;
61505;SDS011;47366;51.916;4.574;2022-11-11T16:33:45;7.47;;;2.90;;
61505;SDS011;47366;51.916;4.574;2022-11-11T16:36:10;6.40;;;2.80;;
61505;SDS011;47366;51.916;4.574;2022-11-11T16:38:36;5.40;;;2.38;;
61505;SDS011;47366;51.916;4.574;2022-11-11T16:41:20;5.28;;;2.90;;
61505;SDS011;47366;51.916;4.574;2022-11-11T16:44:04;3.97;;;2.33;;
61505;SDS011;47366;51.916;4.574;2022-11-11T16:46:46;5.45;;;3.08;;
61505;SDS011;47366;51.916;4.574;2022-11-11T16:51:45;5.90;;;3.17;;
61505;SDS011;47366;51.916;4.574;2022-11-11T16:54:13;4.57;;;2.30;;
61505;SDS011;47366;51.916;4.574;2022-11-11T16:56:43;5.00;;;2.58;;
61505;SDS011;47366;51.916;4.574;2022-11-11T16:59:17;5.97;;;2.42;;
61505;SDS011;47366;51.916;4.574;2022-11-11T17:01:56;7.93;;;2.95;;
61505;SDS011;47366;51.916;4.574;2022-11-11T17:04:21;4.60;;;2.25;;
61505;SDS011;47366;51.916;4.574;2022-11-11T17:06:53;5.32;;;2.72;;
61505;SDS011;47366;51.916;4.574;2022-11-11T17:09:39;6.28;;;2.33;;
61505;SDS011;47366;51.916;4.574;2022-11-11T17:12:05;4.35;;;2.40;;
61505;SDS011;47366;51.916;4.574;2022-11-11T17:14:36;5.30;;;2.47;;
61505;SDS011;47366;51.916;4.574;2022-11-11T17:17:02;7.05;;;2.75;;
61505;SDS011;47366;51.916;4.574;2022-11-11T17:19:31;4.68;;;2.50;;
61505;SDS011;47366;51.916;4.574;2022-11-11T17:22:03;6.13;;;2.88;;
61505;SDS011;47366;51.916;4.574;2022-11-11T17:24:30;6.28;;;2.90;;
61505;SDS011;47366;51.916;4.574;2022-11-11T17:26:55;7.80;;;2.72;;
61505;SDS011;47366;51.916;4.574;2022-11-11T17:29:21;9.85;;;3.92;;
61505;SDS011;47366;51.916;4.574;2022-11-11T17:31:46;10.45;;;3.72;;
61505;SDS011;47366;51.916;4.574;2022-11-11T17:34:11;8.98;;;4.00;;
61505;SDS011;47366;51.916;4.574;2022-11-11T17:36:37;10.82;;;4.22;;
61505;SDS011;47366;51.916;4.574;2022-11-11T17:39:02;6.25;;;3.55;;
61505;SDS011;47366;51.916;4.574;2022-11-11T17:41:27;8.57;;;4.28;;
61505;SDS011;47366;51.916;4.574;2022-11-11T17:43:53;10.13;;;3.97;;
61505;SDS011;47366;51.916;4.574;2022-11-11T17:46:18;7.32;;;3.78;;
61505;SDS011;47366;51.916;4.574;2022-11-11T17:48:44;6.63;;;3.42;;
61505;SDS011;47366;51.916;4.574;2022-11-11T17:51:09;8.93;;;3.42;;
61505;SDS011;47366;51.916;4.574;2022-11-11T17:53:35;9.05;;;3.88;;
61505;SDS011;47366;51.916;4.574;2022-11-11T17:56:01;8.05;;;3.63;;
61505;SDS011;47366;51.916;4.574;2022-11-11T17:58:28;8.38;;;4.00;;
61505;SDS011;47366;51.916;4.574;2022-11-11T18:00:54;8.77;;;4.15;;
61505;SDS011;47366;51.916;4.574;2022-11-11T18:03:19;11.60;;;3.35;;